createdAt,value
2023-02-05T00:01:32.739Z,74.90
2023-02-05T00:04:00.270Z,67.45
2023-02-05T00:06:26.953Z,73.32
2023-02-05T00:08:54.352Z,73.88
2023-02-05T00:11:21.044Z,67.80
2023-02-05T00:13:48.341Z,75.00
2023-02-05T00:16:18.242Z,62.67
2023-02-05T00:18:45.928Z,66.80
2023-02-05T00:21:14.204Z,82.20
2023-02-05T00:23:42.128Z,68.38
2023-02-05T00:26:10.533Z,66.10
2023-02-05T00:28:38.383Z,69.82
2023-02-05T00:31:10.639Z,61.38
2023-02-05T00:33:38.752Z,60.90
2023-02-05T00:36:05.772Z,79.50
2023-02-05T00:38:33.222Z,79.80
2023-02-05T00:41:00.152Z,81.28
2023-02-05T00:43:27.126Z,69.68
2023-02-05T00:45:54.832Z,78.47
2023-02-05T00:48:21.699Z,73.32
2023-02-05T00:50:51.059Z,77.13
2023-02-05T00:53:18.787Z,74.25
2023-02-05T00:55:46.535Z,80.70
2023-02-05T00:58:14.125Z,71.82
2023-02-05T01:00:41.693Z,71.32
2023-02-05T01:03:08.538Z,74.88
2023-02-05T01:05:36.832Z,71.13
2023-02-05T01:08:04.984Z,67.70
2023-02-05T01:10:32.342Z,72.30
2023-02-05T01:12:58.958Z,85.15
2023-02-05T01:15:26.899Z,85.38
2023-02-05T01:17:53.487Z,74.18
2023-02-05T01:20:21.976Z,92.40
2023-02-05T01:22:49.372Z,76.85
2023-02-05T01:25:17.346Z,91.13
2023-02-05T01:27:45.071Z,79.28
2023-02-05T01:30:14.249Z,76.20
2023-02-05T01:32:41.478Z,71.80
2023-02-05T01:35:09.667Z,80.88
2023-02-05T01:37:36.261Z,82.80
2023-02-05T01:40:04.216Z,76.95
2023-02-05T01:42:32.941Z,84.22
2023-02-05T01:45:22.252Z,90.78
2023-02-05T01:47:51.446Z,73.82
2023-02-05T01:50:27.322Z,70.50
2023-02-05T01:52:56.493Z,78.25
2023-02-05T01:55:24.516Z,78.85
2023-02-05T01:57:52.664Z,95.95
2023-02-05T02:00:20.138Z,93.55
2023-02-05T02:02:47.487Z,78.13
2023-02-05T02:05:16.508Z,90.20
2023-02-05T02:07:44.095Z,86.22
2023-02-05T02:10:13.853Z,79.82
2023-02-05T02:12:43.240Z,92.95
2023-02-05T02:15:14.885Z,105.03
2023-02-05T02:17:45.849Z,112.82
2023-02-05T02:20:16.204Z,98.43
2023-02-05T02:22:49.118Z,102.13
2023-02-05T02:25:36.985Z,89.88
2023-02-05T02:28:13.174Z,114.47
2023-02-05T02:30:48.854Z,83.47
2023-02-05T02:33:22.306Z,103.55
2023-02-05T02:36:00.127Z,103.97
2023-02-05T02:38:34.244Z,100.40
2023-02-05T02:41:18.359Z,94.50
2023-02-05T02:43:52.059Z,108.72
2023-02-05T02:46:31.387Z,100.03
2023-02-05T02:49:02.586Z,106.30
2023-02-05T02:51:31.423Z,100.88
2023-02-05T02:54:02.192Z,109.10
2023-02-05T02:56:31.894Z,114.57
2023-02-05T02:59:06.468Z,108.28
2023-02-05T03:01:37.238Z,125.45
2023-02-05T03:04:12.302Z,132.60
2023-02-05T03:06:41.362Z,110.30
2023-02-05T03:09:40.320Z,127.03
2023-02-05T03:12:07.511Z,133.15
2023-02-05T03:14:36.112Z,150.00
2023-02-05T03:17:04.057Z,138.30
2023-02-05T03:19:32.557Z,138.25
2023-02-05T03:22:06.416Z,130.52
2023-02-05T03:24:33.944Z,143.82
2023-02-05T03:27:00.568Z,140.80
2023-02-05T03:29:36.536Z,139.07
2023-02-05T03:32:27.960Z,142.95
2023-02-05T03:35:14.064Z,151.05
2023-02-05T03:38:25.890Z,152.95
2023-02-05T03:41:15.945Z,144.25
2023-02-05T03:44:12.794Z,155.90
2023-02-05T03:46:53.653Z,166.82
2023-02-05T03:49:52.761Z,170.38
2023-02-05T03:52:31.306Z,185.32
2023-02-05T03:55:08.910Z,189.95
2023-02-05T03:58:06.552Z,194.18
2023-02-05T04:00:34.477Z,192.10
2023-02-05T04:03:03.583Z,207.70
2023-02-05T04:05:32.603Z,205.93
2023-02-05T04:08:02.187Z,194.48
2023-02-05T04:13:03.024Z,185.93
2023-02-05T04:15:31.488Z,189.65
2023-02-05T04:18:00.468Z,199.90
2023-02-05T04:20:29.408Z,191.88
2023-02-05T04:22:56.814Z,189.63
2023-02-05T04:25:25.230Z,209.13
2023-02-05T04:27:54.374Z,205.27
2023-02-05T04:30:22.046Z,198.85
2023-02-05T04:32:49.030Z,197.77
2023-02-05T04:35:17.868Z,200.18
2023-02-05T04:37:46.338Z,206.80
2023-02-05T04:40:14.521Z,230.20
2023-02-05T04:42:41.097Z,213.40
2023-02-05T04:45:09.037Z,211.55
2023-02-05T04:47:35.811Z,210.02
2023-02-05T04:50:03.568Z,207.23
2023-02-05T04:52:30.520Z,203.20
2023-02-05T04:55:00.835Z,207.95
2023-02-05T04:57:27.515Z,230.20
2023-02-05T04:59:54.801Z,221.73
2023-02-05T05:02:22.959Z,217.73
2023-02-05T05:04:50.350Z,227.88
2023-02-05T05:07:16.971Z,229.40
2023-02-05T05:09:44.542Z,246.25
2023-02-05T05:12:11.184Z,225.85
2023-02-05T05:14:38.866Z,235.02
2023-02-05T05:17:05.510Z,246.25
2023-02-05T05:19:32.996Z,248.15
2023-02-05T05:21:59.835Z,235.50
2023-02-05T05:24:27.181Z,231.15
2023-02-05T05:26:53.762Z,233.05
2023-02-05T05:29:21.020Z,219.77
2023-02-05T05:31:47.805Z,221.05
2023-02-05T05:34:15.278Z,210.15
2023-02-05T05:36:43.486Z,215.27
2023-02-05T05:39:34.241Z,221.23
2023-02-05T05:42:19.534Z,216.27
2023-02-05T05:44:50.330Z,205.50
2023-02-05T05:47:16.955Z,191.00
2023-02-05T05:49:44.545Z,197.60
2023-02-05T05:52:11.499Z,184.07
2023-02-05T05:54:38.942Z,194.25
2023-02-05T05:57:07.528Z,173.77
2023-02-05T05:59:35.137Z,174.27
2023-02-05T06:02:02.710Z,171.02
2023-02-05T06:04:30.670Z,163.27
2023-02-05T06:06:57.352Z,156.90
2023-02-05T06:09:25.232Z,146.23
2023-02-05T06:11:51.894Z,145.00
2023-02-05T06:14:18.841Z,139.75
2023-02-05T06:16:47.064Z,138.55
2023-02-05T06:19:13.691Z,141.07
2023-02-05T06:21:40.953Z,138.10
2023-02-05T06:24:07.650Z,121.68
2023-02-05T06:26:34.904Z,126.75
2023-02-05T06:29:04.832Z,107.28
2023-02-05T06:31:31.737Z,117.85
2023-02-05T06:34:01.381Z,115.03
2023-02-05T06:36:27.973Z,110.85
2023-02-05T06:38:55.248Z,108.85
2023-02-05T06:41:21.824Z,96.00
2023-02-05T06:43:48.738Z,97.93
2023-02-05T06:46:16.201Z,106.10
2023-02-05T06:48:43.884Z,85.55
2023-02-05T06:51:11.143Z,106.30
2023-02-05T06:53:37.759Z,90.25
2023-02-05T06:56:05.497Z,97.25
2023-02-05T06:58:32.081Z,92.55
2023-02-05T07:00:59.423Z,104.32
2023-02-05T07:03:26.057Z,91.45
2023-02-05T07:05:53.417Z,93.38
2023-02-05T07:08:20.220Z,96.07
2023-02-05T07:10:47.602Z,89.55
2023-02-05T07:13:14.184Z,94.63
2023-02-05T07:15:41.500Z,94.70
2023-02-05T07:18:08.109Z,95.60
2023-02-05T07:20:35.394Z,90.10
2023-02-05T07:23:02.073Z,91.68
2023-02-05T07:25:29.424Z,96.38
2023-02-05T07:27:56.045Z,91.28
2023-02-05T07:30:23.003Z,92.80
2023-02-05T07:32:49.627Z,90.43
2023-02-05T07:35:16.992Z,89.60
2023-02-05T07:37:43.643Z,96.07
2023-02-05T07:40:11.393Z,93.35
2023-02-05T07:42:38.144Z,92.65
2023-02-05T07:45:07.829Z,87.90
2023-02-05T07:47:34.461Z,88.68
2023-02-05T07:50:01.768Z,86.40
2023-02-05T07:52:28.356Z,87.53
2023-02-05T07:54:55.633Z,83.60
2023-02-05T07:57:22.264Z,82.90
2023-02-05T07:59:49.573Z,83.18
2023-02-05T08:02:16.184Z,75.18
2023-02-05T08:04:43.715Z,62.47
2023-02-05T08:07:14.057Z,66.43
2023-02-05T08:09:41.364Z,47.25
2023-02-05T08:12:08.054Z,33.08
2023-02-05T08:14:36.308Z,20.58
2023-02-05T08:17:05.925Z,26.25
2023-02-05T08:19:32.906Z,11.75
2023-02-05T08:21:59.493Z,18.00
2023-02-05T08:24:26.865Z,8.38
2023-02-05T08:26:53.438Z,13.35
2023-02-05T08:29:20.881Z,16.15
2023-02-05T08:31:47.615Z,8.80
2023-02-05T08:34:16.130Z,11.80
2023-02-05T08:36:42.739Z,9.55
2023-02-05T08:39:10.012Z,10.00
2023-02-05T08:41:37.444Z,7.57
2023-02-05T08:44:05.135Z,15.98
2023-02-05T08:46:43.880Z,21.70
2023-02-05T08:49:17.235Z,5.95
2023-02-05T08:51:43.929Z,14.25
2023-02-05T08:54:13.600Z,11.82
2023-02-05T08:56:41.421Z,3.78
2023-02-05T08:59:09.018Z,10.20
2023-02-05T09:01:37.820Z,11.02
2023-02-05T09:04:05.007Z,9.18
2023-02-05T09:06:32.466Z,11.60
2023-02-05T09:09:00.240Z,16.27
2023-02-05T09:11:27.556Z,10.95
2023-02-05T09:13:54.258Z,12.38
2023-02-05T09:16:21.643Z,15.68
2023-02-05T09:18:48.371Z,11.07
2023-02-05T09:21:15.774Z,13.70
2023-02-05T09:23:42.552Z,12.60
2023-02-05T09:26:09.850Z,24.13
2023-02-05T09:28:36.657Z,13.80
2023-02-05T09:31:16.793Z,15.70
2023-02-05T09:33:46.271Z,23.95
2023-02-05T09:36:19.805Z,17.80
2023-02-05T09:38:47.363Z,15.25
2023-02-05T09:41:14.555Z,18.40
2023-02-05T09:44:06.103Z,23.17
2023-02-05T09:47:00.014Z,17.00
2023-02-05T09:49:31.599Z,15.40
2023-02-05T09:52:18.363Z,26.38
2023-02-05T09:54:52.589Z,11.52
2023-02-05T09:57:38.573Z,14.20
2023-02-05T10:00:16.316Z,14.60
2023-02-05T10:03:05.848Z,15.85
2023-02-05T10:06:00.289Z,15.73
2023-02-05T10:08:44.294Z,15.73
2023-02-05T10:11:48.622Z,23.92
2023-02-05T10:14:28.703Z,18.95
2023-02-05T10:17:02.307Z,18.33
2023-02-05T10:19:48.376Z,19.80
2023-02-05T10:22:27.675Z,18.38
2023-02-05T10:25:24.687Z,26.25
2023-02-05T10:28:16.624Z,18.58
2023-02-05T10:31:07.085Z,18.13
2023-02-05T10:33:51.261Z,29.80
2023-02-05T10:36:23.060Z,22.50
2023-02-05T10:38:52.899Z,25.00
2023-02-05T10:41:22.279Z,17.45
2023-02-05T10:44:01.242Z,25.75
2023-02-05T10:46:36.668Z,24.30
2023-02-05T10:49:21.767Z,26.05
2023-02-05T10:51:48.375Z,27.90
2023-02-05T10:54:31.651Z,27.23
2023-02-05T10:56:59.106Z,26.25
2023-02-05T10:59:29.992Z,19.52
2023-02-05T11:02:04.150Z,23.80
2023-02-05T11:04:45.228Z,29.23
2023-02-05T11:07:16.304Z,28.52
2023-02-05T11:09:44.713Z,28.35
2023-02-05T11:12:31.757Z,20.35
2023-02-05T11:15:01.396Z,34.70
2023-02-05T11:17:36.434Z,43.05
2023-02-05T11:20:08.718Z,42.80
2023-02-05T11:22:41.164Z,33.45
2023-02-05T11:25:16.135Z,32.13
2023-02-05T11:27:54.010Z,33.78
2023-02-05T11:30:50.009Z,37.42
2023-02-05T11:33:17.580Z,33.75
2023-02-05T11:36:05.136Z,39.80
2023-02-05T11:38:44.076Z,23.95
2023-02-05T11:41:13.884Z,32.33
2023-02-05T11:43:51.486Z,34.60
2023-02-05T11:46:22.113Z,34.08
2023-02-05T11:49:03.123Z,30.75
2023-02-05T11:51:42.167Z,34.58
2023-02-05T11:54:22.292Z,32.53
2023-02-05T11:57:27.398Z,36.25
2023-02-05T11:59:59.844Z,28.38
2023-02-05T12:05:11.711Z,27.33
2023-02-05T12:07:52.736Z,28.25
2023-02-05T12:10:29.081Z,26.58
2023-02-05T12:13:05.138Z,25.05
2023-02-05T12:15:41.918Z,34.58
2023-02-05T12:18:49.128Z,28.88
2023-02-05T12:21:30.297Z,25.10
2023-02-05T12:24:18.340Z,25.45
2023-02-05T12:26:47.788Z,22.10
2023-02-05T12:29:36.277Z,16.70
2023-02-05T12:32:24.201Z,14.88
2023-02-05T12:35:12.988Z,15.75
2023-02-05T12:37:55.521Z,23.05
2023-02-05T12:40:38.836Z,9.65
2023-02-05T12:43:30.843Z,29.38
2023-02-05T12:45:57.409Z,16.35
2023-02-05T12:48:29.478Z,18.17
2023-02-05T12:51:12.878Z,26.42
2023-02-05T12:53:40.173Z,18.52
2023-02-05T12:56:28.306Z,21.27
2023-02-05T12:59:12.797Z,34.00
2023-02-05T13:01:50.976Z,20.13
2023-02-05T13:04:33.838Z,25.50
2023-02-05T13:07:38.440Z,19.67
2023-02-05T13:10:20.810Z,23.33
2023-02-05T13:12:56.161Z,21.90
2023-02-05T13:15:28.314Z,24.38
2023-02-05T13:18:05.542Z,19.48
2023-02-05T13:20:55.135Z,25.33
2023-02-05T13:23:41.599Z,23.90
2023-02-05T13:26:26.012Z,22.92
2023-02-05T13:29:08.302Z,30.05
2023-02-05T13:31:43.283Z,34.45
2023-02-05T13:34:15.498Z,31.88
2023-02-05T13:37:11.471Z,24.40
2023-02-05T13:40:06.047Z,29.98
2023-02-05T13:43:01.866Z,30.92
2023-02-05T13:45:57.820Z,26.50
2023-02-05T13:48:31.853Z,37.33
2023-02-05T13:51:21.901Z,33.35
2023-02-05T13:54:12.322Z,40.92
2023-02-05T13:56:48.215Z,29.60
2023-02-05T13:59:18.345Z,44.88
2023-02-05T14:02:00.156Z,26.45
2023-02-05T14:04:53.487Z,21.00
2023-02-05T14:07:27.223Z,24.67
2023-02-05T14:09:59.812Z,40.17
2023-02-05T14:12:30.160Z,32.05
2023-02-05T14:15:15.761Z,29.27
2023-02-05T14:17:42.313Z,30.95
2023-02-05T14:20:24.628Z,29.25
2023-02-05T14:23:00.822Z,25.83
2023-02-05T14:25:41.859Z,31.17
2023-02-05T14:28:08.485Z,22.95
2023-02-05T14:30:51.133Z,25.92
2023-02-05T14:33:37.550Z,23.60
2023-02-05T14:36:23.129Z,31.92
2023-02-05T14:39:40.179Z,29.80
2023-02-05T14:42:07.955Z,40.78
2023-02-05T14:44:37.800Z,40.88
2023-02-05T14:47:26.446Z,39.95
2023-02-05T14:50:05.842Z,21.77
2023-02-05T14:52:38.839Z,30.75
2023-02-05T14:55:13.959Z,38.97
2023-02-05T14:57:54.153Z,37.70
2023-02-05T15:00:26.018Z,33.97
2023-02-05T15:03:01.540Z,25.92
2023-02-05T15:05:42.136Z,32.80
2023-02-05T15:08:10.958Z,35.40
2023-02-05T15:10:47.461Z,31.42
2023-02-05T15:13:19.463Z,33.97
2023-02-05T15:16:16.707Z,21.77
2023-02-05T15:18:57.709Z,35.88
2023-02-05T15:21:39.288Z,30.65
2023-02-05T15:24:21.757Z,37.60
2023-02-05T15:27:02.967Z,31.55
2023-02-05T15:29:41.507Z,45.80
2023-02-05T15:32:45.851Z,42.88
2023-02-05T15:35:19.348Z,49.28
2023-02-05T15:37:52.721Z,31.45
2023-02-05T15:40:23.789Z,36.22
2023-02-05T15:42:55.476Z,37.38
2023-02-05T15:45:29.321Z,34.33
2023-02-05T15:47:58.723Z,34.28
2023-02-05T15:50:27.024Z,36.67
2023-02-05T15:52:54.071Z,42.00
2023-02-05T15:55:24.509Z,43.45
2023-02-05T15:57:52.114Z,37.15
2023-02-05T16:00:28.997Z,38.95
2023-02-05T16:02:59.108Z,46.78
2023-02-05T16:05:27.228Z,32.97
2023-02-05T16:07:59.056Z,43.60
2023-02-05T16:10:30.347Z,37.67
2023-02-05T16:13:06.083Z,40.30
2023-02-05T16:16:01.783Z,43.30
2023-02-05T16:18:38.707Z,38.20
2023-02-05T16:21:31.934Z,37.75
2023-02-05T16:24:27.138Z,43.38
2023-02-05T16:27:16.248Z,35.30
2023-02-05T16:29:52.384Z,43.70
2023-02-05T16:32:31.035Z,48.13
2023-02-05T16:34:58.968Z,51.15
2023-02-05T16:37:30.742Z,40.47
2023-02-05T16:40:00.167Z,46.33
2023-02-05T16:42:27.462Z,40.03
2023-02-05T16:45:08.706Z,39.80
2023-02-05T16:47:37.005Z,46.58
2023-02-05T16:50:38.841Z,46.30
2023-02-05T16:53:26.577Z,54.30
2023-02-05T16:56:02.854Z,50.63
2023-02-05T16:58:38.521Z,49.33
2023-02-05T17:01:05.254Z,75.07
2023-02-05T17:03:38.862Z,201.48
2023-02-05T17:06:15.442Z,127.63
2023-02-05T17:08:46.811Z,248.10
2023-02-05T17:11:39.213Z,201.63
2023-02-05T17:14:32.990Z,308.92
2023-02-05T17:17:02.272Z,174.57
2023-02-05T17:19:31.746Z,46.22
2023-02-05T17:22:14.013Z,50.60
2023-02-05T17:24:46.154Z,49.03
2023-02-05T17:27:37.695Z,52.92
2023-02-05T17:30:06.797Z,53.95
2023-02-05T17:32:34.194Z,45.60
2023-02-05T17:35:01.363Z,42.92
2023-02-05T17:37:28.398Z,62.03
2023-02-05T17:39:57.823Z,61.88
2023-02-05T17:42:26.218Z,60.90
2023-02-05T17:44:54.018Z,61.97
2023-02-05T17:47:20.658Z,56.38
2023-02-05T17:49:48.063Z,44.50
2023-02-05T17:52:15.458Z,50.28
2023-02-05T17:54:43.419Z,44.45
2023-02-05T17:57:19.287Z,52.08
2023-02-05T17:59:46.999Z,52.72
2023-02-05T18:02:14.684Z,55.63
2023-02-05T18:04:42.406Z,47.20
2023-02-05T18:07:31.376Z,54.88
2023-02-05T18:09:59.428Z,44.97
2023-02-05T18:12:26.934Z,54.80
2023-02-05T18:14:54.769Z,53.83
2023-02-05T18:17:21.525Z,56.97
2023-02-05T18:19:48.436Z,49.28
2023-02-05T18:22:15.189Z,64.15
2023-02-05T18:24:42.129Z,58.33
2023-02-05T18:27:09.190Z,54.78
2023-02-05T18:29:37.563Z,73.82
2023-02-05T18:32:04.837Z,80.47
2023-02-05T18:34:32.584Z,54.78
2023-02-05T18:36:59.501Z,59.33
2023-02-05T18:39:28.743Z,48.03
2023-02-05T18:41:56.268Z,55.97
2023-02-05T18:44:23.725Z,40.45
2023-02-05T18:46:50.405Z,44.33
2023-02-05T18:49:17.845Z,50.80
2023-02-05T18:51:44.471Z,49.40
2023-02-05T18:54:11.932Z,53.15
2023-02-05T18:56:38.717Z,49.55
2023-02-05T18:59:08.608Z,69.53
2023-02-05T19:01:38.302Z,59.78
2023-02-05T19:04:08.757Z,62.10
2023-02-05T19:06:35.556Z,45.75
2023-02-05T19:09:04.038Z,45.72
2023-02-05T19:11:31.318Z,83.00
2023-02-05T19:14:04.564Z,61.03
2023-02-05T19:18:59.298Z,59.58
2023-02-05T19:21:28.904Z,52.55
2023-02-05T19:23:57.209Z,41.35
2023-02-05T19:26:26.403Z,40.28
2023-02-05T19:29:02.140Z,39.72
2023-02-05T19:31:30.434Z,57.80
2023-02-05T19:33:58.826Z,43.85
2023-02-05T19:36:26.036Z,62.88
2023-02-05T19:38:54.078Z,51.45
2023-02-05T19:41:37.213Z,49.10
2023-02-05T19:44:06.770Z,52.58
2023-02-05T19:46:37.105Z,55.20
2023-02-05T19:49:07.681Z,49.80
2023-02-05T19:51:34.565Z,58.75
2023-02-05T19:54:06.844Z,54.60
2023-02-05T19:56:37.538Z,34.67
2023-02-05T19:59:06.659Z,63.72
2023-02-05T20:01:36.438Z,46.70
2023-02-05T20:04:15.546Z,53.55
2023-02-05T20:06:45.929Z,51.78
2023-02-05T20:09:14.812Z,55.40
2023-02-05T20:11:43.597Z,49.38
2023-02-05T20:14:11.782Z,47.20
2023-02-05T20:16:42.324Z,53.60
2023-02-05T20:19:12.838Z,63.17
2023-02-05T20:21:39.909Z,54.53
2023-02-05T20:24:08.464Z,45.08
2023-02-05T20:26:36.385Z,46.30
2023-02-05T20:29:22.802Z,46.75
2023-02-05T20:31:51.716Z,56.47
2023-02-05T20:34:22.157Z,78.25
2023-02-05T20:36:57.686Z,50.78
2023-02-05T20:39:30.096Z,60.97
2023-02-05T20:41:58.965Z,55.03
2023-02-05T20:44:32.130Z,61.05
2023-02-05T20:49:26.098Z,51.45
2023-02-05T20:51:53.895Z,252.77
2023-02-05T20:54:22.549Z,68.38
2023-02-05T20:56:56.804Z,60.55
2023-02-05T20:59:24.964Z,67.65
2023-02-05T21:01:51.947Z,59.17
2023-02-05T21:04:20.684Z,61.20
2023-02-05T21:06:48.147Z,48.83
2023-02-05T21:09:16.254Z,61.08
2023-02-05T21:11:42.954Z,65.07
2023-02-05T21:14:10.358Z,50.45
2023-02-05T21:16:37.579Z,57.70
2023-02-05T21:19:06.991Z,78.55
2023-02-05T21:21:36.498Z,59.85
2023-02-05T21:24:06.840Z,60.80
2023-02-05T21:26:39.142Z,70.18
2023-02-05T21:29:12.655Z,53.30
2023-02-05T21:31:48.046Z,67.13
2023-02-05T21:34:25.669Z,82.72
2023-02-05T21:36:53.870Z,77.88
2023-02-05T21:39:22.032Z,60.17
2023-02-05T21:41:50.610Z,84.93
2023-02-05T21:44:18.129Z,78.20
2023-02-05T21:46:44.762Z,66.80
2023-02-05T21:49:11.842Z,83.43
2023-02-05T21:51:40.100Z,55.58
2023-02-05T21:54:06.829Z,64.57
2023-02-05T21:56:37.672Z,57.90
2023-02-05T21:59:05.087Z,77.28
2023-02-05T22:01:35.343Z,60.30
2023-02-05T22:04:04.697Z,62.15
2023-02-05T22:06:34.131Z,62.17
2023-02-05T22:09:03.687Z,59.60
2023-02-05T22:11:32.075Z,58.70
2023-02-05T22:13:58.698Z,56.25
2023-02-05T22:16:28.464Z,59.83
2023-02-05T22:18:55.903Z,60.28
2023-02-05T22:21:25.882Z,65.60
2023-02-05T22:23:55.300Z,58.78
2023-02-05T22:26:25.363Z,71.00
2023-02-05T22:28:52.619Z,55.00
2023-02-05T22:31:20.926Z,63.15
2023-02-05T22:33:49.206Z,73.13
2023-02-05T22:36:20.421Z,57.45
2023-02-05T22:38:48.054Z,80.80
2023-02-05T22:41:18.569Z,74.88
2023-02-05T22:43:45.203Z,72.68
2023-02-05T22:46:16.192Z,94.50
2023-02-05T22:48:45.191Z,78.97
2023-02-05T22:51:18.822Z,74.63
2023-02-05T22:53:45.716Z,79.68
2023-02-05T22:56:13.551Z,73.75
2023-02-05T22:58:42.493Z,67.95
2023-02-05T23:01:12.110Z,90.53
2023-02-05T23:03:39.542Z,82.32
2023-02-05T23:06:18.934Z,77.40
2023-02-05T23:08:51.621Z,59.10
2023-02-05T23:11:19.964Z,65.20
2023-02-05T23:13:46.816Z,73.32
2023-02-05T23:16:15.402Z,85.22
2023-02-05T23:18:43.166Z,132.18
2023-02-05T23:21:12.452Z,134.18
2023-02-05T23:23:39.171Z,212.48
2023-02-05T23:26:15.081Z,157.60
2023-02-05T23:28:42.222Z,87.90
2023-02-05T23:31:09.573Z,80.78
2023-02-05T23:33:37.171Z,87.95
2023-02-05T23:36:06.162Z,94.90
2023-02-05T23:38:33.045Z,74.45
2023-02-05T23:41:00.762Z,73.05
2023-02-05T23:43:27.383Z,79.70
2023-02-05T23:45:55.205Z,79.60
2023-02-05T23:48:22.084Z,76.25
2023-02-05T23:50:50.988Z,87.68
2023-02-05T23:53:20.785Z,95.97
2023-02-05T23:55:50.354Z,127.97
2023-02-05T23:58:18.990Z,243.93
